createdAt,value
2019-05-07T00:00:19.258Z,4.97
2019-05-07T00:02:49.184Z,4.70
2019-05-07T00:05:19.125Z,4.55
2019-05-07T00:07:49.042Z,4.53
2019-05-07T00:10:18.987Z,5.35
2019-05-07T00:12:48.924Z,4.45
2019-05-07T00:15:19.888Z,4.92
2019-05-07T00:17:52.117Z,4.80
2019-05-07T00:20:23.132Z,5.75
2019-05-07T00:22:53.447Z,4.97
2019-05-07T00:25:23.507Z,5.30
2019-05-07T00:30:28.389Z,5.78
2019-05-07T00:32:59.857Z,5.97
2019-05-07T00:35:34.391Z,5.60
2019-05-07T00:38:09.645Z,5.10
2019-05-07T00:40:42.550Z,5.25
2019-05-07T00:43:17.196Z,5.17
2019-05-07T00:45:48.762Z,5.47
2019-05-07T00:48:18.668Z,5.28
2019-05-07T00:50:52.643Z,5.62
2019-05-07T00:53:23.713Z,5.37
2019-05-07T00:55:53.511Z,5.15
2019-05-07T00:58:26.662Z,5.80
2019-05-07T01:00:55.224Z,6.47
2019-05-07T01:03:25.253Z,6.03
2019-05-07T01:05:55.186Z,5.87
2019-05-07T01:08:25.223Z,5.85
2019-05-07T01:10:55.279Z,5.42
2019-05-07T01:13:25.187Z,6.37
2019-05-07T01:15:55.128Z,6.22
2019-05-07T01:18:24.967Z,6.22
2019-05-07T01:20:54.735Z,5.92
2019-05-07T01:23:24.734Z,6.35
2019-05-07T01:25:54.669Z,4.97
2019-05-07T01:28:24.698Z,6.10
2019-05-07T01:30:54.738Z,6.20
2019-05-07T01:33:26.252Z,7.83
2019-05-07T01:36:03.821Z,8.78
2019-05-07T01:38:34.838Z,7.47
2019-05-07T01:41:04.811Z,7.90
2019-05-07T01:43:36.253Z,8.10
2019-05-07T01:46:06.211Z,6.67
2019-05-07T01:48:36.247Z,6.35
2019-05-07T01:51:06.181Z,6.20
2019-05-07T01:53:36.131Z,6.53
2019-05-07T01:56:06.052Z,5.75
2019-05-07T01:58:36.090Z,5.50
2019-05-07T02:01:06.014Z,4.75
2019-05-07T02:03:43.837Z,3.77
2019-05-07T02:06:32.643Z,4.17
2019-05-07T02:09:22.459Z,3.50
2019-05-07T02:11:53.824Z,3.80
2019-05-07T02:14:23.762Z,4.42
2019-05-07T02:16:54.016Z,5.17
2019-05-07T02:19:23.943Z,4.75
2019-05-07T02:21:53.987Z,5.20
2019-05-07T02:24:23.817Z,4.60
2019-05-07T02:26:53.748Z,5.83
2019-05-07T02:29:23.781Z,5.03
2019-05-07T02:31:53.822Z,5.37
2019-05-07T02:34:23.755Z,5.00
2019-05-07T02:36:54.069Z,4.10
2019-05-07T02:39:25.669Z,5.15
2019-05-07T02:41:55.604Z,5.58
2019-05-07T02:44:25.552Z,6.15
2019-05-07T02:47:04.089Z,5.33
2019-05-07T02:49:38.496Z,4.97
2019-05-07T02:52:13.220Z,4.33
2019-05-07T02:54:59.549Z,5.28
2019-05-07T02:57:33.634Z,5.00
2019-05-07T03:00:04.449Z,5.30
2019-05-07T03:02:33.442Z,5.30
2019-05-07T03:05:05.342Z,5.05
2019-05-07T03:07:35.562Z,5.37
2019-05-07T03:10:06.621Z,5.42
2019-05-07T03:12:36.564Z,5.92
2019-05-07T03:15:06.913Z,6.00
2019-05-07T03:17:37.158Z,6.87
2019-05-07T03:20:08.972Z,6.60
2019-05-07T03:22:38.955Z,8.13
2019-05-07T03:25:14.637Z,8.20
2019-05-07T03:27:45.653Z,6.90
2019-05-07T03:30:25.562Z,6.45
2019-05-07T03:33:06.933Z,5.62
2019-05-07T03:35:37.757Z,5.65
2019-05-07T03:38:07.303Z,5.95
2019-05-07T03:40:38.260Z,6.10
2019-05-07T03:43:08.305Z,5.70
2019-05-07T03:45:43.425Z,7.50
2019-05-07T03:48:23.882Z,6.55
2019-05-07T03:50:53.325Z,6.90
2019-05-07T03:55:54.136Z,6.67
2019-05-07T03:58:24.268Z,6.90
2019-05-07T04:00:54.192Z,6.53
2019-05-07T04:03:24.953Z,6.85
2019-05-07T04:05:55.195Z,6.75
2019-05-07T04:08:25.306Z,5.83
2019-05-07T04:10:55.273Z,6.20
2019-05-07T04:13:25.315Z,6.30
2019-05-07T04:15:55.240Z,7.05
2019-05-07T04:18:25.172Z,8.55
2019-05-07T04:20:55.106Z,6.08
2019-05-07T04:23:25.041Z,6.15
2019-05-07T04:25:56.936Z,6.12
2019-05-07T04:28:33.470Z,6.15
2019-05-07T04:31:03.565Z,6.03
2019-05-07T04:36:09.984Z,5.67
2019-05-07T04:38:39.904Z,5.35
2019-05-07T04:41:09.887Z,7.33
2019-05-07T04:43:43.195Z,6.05
2019-05-07T04:46:14.328Z,4.95
2019-05-07T04:48:44.093Z,6.33
2019-05-07T04:51:15.804Z,5.33
2019-05-07T04:53:45.763Z,6.22
2019-05-07T04:56:15.669Z,5.15
2019-05-07T04:58:45.617Z,4.35
2019-05-07T05:01:17.185Z,12.20
2019-05-07T05:03:47.122Z,6.12
2019-05-07T05:06:17.049Z,5.60
2019-05-07T05:08:47.196Z,7.17
2019-05-07T05:11:19.681Z,5.42
2019-05-07T05:13:49.611Z,6.10
2019-05-07T05:16:23.741Z,9.70
2019-05-07T05:18:56.057Z,6.17
2019-05-07T05:21:42.737Z,9.73
2019-05-07T05:24:15.835Z,7.70
2019-05-07T05:26:45.878Z,5.92
2019-05-07T05:29:16.539Z,5.60
2019-05-07T05:31:46.561Z,5.70
2019-05-07T05:34:16.504Z,5.75
2019-05-07T05:36:46.364Z,6.05
2019-05-07T05:39:16.281Z,5.67
2019-05-07T05:41:47.846Z,6.65
2019-05-07T05:44:22.596Z,6.90
2019-05-07T05:46:52.576Z,5.70
2019-05-07T05:49:23.066Z,5.90
2019-05-07T05:54:25.484Z,9.20
2019-05-07T05:57:13.432Z,6.55
2019-05-07T06:00:03.230Z,5.78
2019-05-07T06:02:37.632Z,6.22
2019-05-07T06:05:25.588Z,8.50
2019-05-07T06:07:57.247Z,6.28
2019-05-07T06:10:28.812Z,8.55
2019-05-07T06:13:01.828Z,6.80
2019-05-07T06:15:49.550Z,7.10
2019-05-07T06:18:37.581Z,5.05
2019-05-07T06:21:15.300Z,4.80
2019-05-07T06:23:46.871Z,4.90
2019-05-07T06:26:16.802Z,4.50
2019-05-07T06:28:46.734Z,5.50
2019-05-07T06:31:16.790Z,5.20
2019-05-07T06:33:46.716Z,4.92
2019-05-07T06:36:16.747Z,5.05
2019-05-07T06:39:04.408Z,4.87
2019-05-07T06:41:52.623Z,5.25
2019-05-07T06:44:23.468Z,5.08
2019-05-07T06:46:53.404Z,5.20
2019-05-07T06:49:23.748Z,5.58
2019-05-07T06:51:53.682Z,4.40
2019-05-07T06:54:23.589Z,4.05
2019-05-07T06:56:53.650Z,4.37
2019-05-07T06:59:25.238Z,4.78
2019-05-07T07:02:05.335Z,4.17
2019-05-07T07:04:36.244Z,4.12
2019-05-07T07:07:27.221Z,4.30
2019-05-07T07:09:53.294Z,4.40
2019-05-07T07:12:26.107Z,3.85
2019-05-07T07:14:58.075Z,4.50
2019-05-07T07:17:29.439Z,5.00
2019-05-07T07:19:59.377Z,3.50
2019-05-07T07:22:29.315Z,4.25
2019-05-07T07:24:59.247Z,4.12
2019-05-07T07:27:29.151Z,3.92
2019-05-07T07:30:17.144Z,3.22
2019-05-07T07:32:48.653Z,2.95
2019-05-07T07:35:18.927Z,3.37
2019-05-07T07:37:48.970Z,3.08
2019-05-07T07:40:33.117Z,2.70
2019-05-07T07:43:06.476Z,4.40
2019-05-07T07:45:34.719Z,3.00
2019-05-07T07:48:04.872Z,2.72
2019-05-07T07:53:04.081Z,3.20
2019-05-07T07:55:38.551Z,2.92
2019-05-07T07:58:12.686Z,3.33
2019-05-07T08:00:59.283Z,3.27
2019-05-07T08:03:29.218Z,3.33
2019-05-07T08:08:28.273Z,2.90
2019-05-07T08:10:58.202Z,2.67
2019-05-07T08:13:28.138Z,3.00
2019-05-07T08:15:58.182Z,2.98
2019-05-07T08:18:28.140Z,3.00
2019-05-07T08:20:59.494Z,2.80
2019-05-07T08:23:29.424Z,3.20
2019-05-07T08:25:59.354Z,2.60
2019-05-07T08:28:29.286Z,2.55
2019-05-07T08:31:03.515Z,2.37
2019-05-07T08:33:34.990Z,2.72
2019-05-07T08:36:09.211Z,2.75
2019-05-07T08:38:56.145Z,2.67
2019-05-07T08:41:27.881Z,2.62
2019-05-07T08:44:10.763Z,3.87
2019-05-07T08:46:38.743Z,3.10
2019-05-07T08:49:12.141Z,2.58
2019-05-07T08:51:42.652Z,2.58
2019-05-07T08:54:12.590Z,4.37
2019-05-07T08:56:42.661Z,2.42
2019-05-07T08:59:12.694Z,2.90
2019-05-07T09:01:43.469Z,2.95
2019-05-07T09:04:13.720Z,2.55
2019-05-07T09:06:43.814Z,2.50
2019-05-07T09:09:14.375Z,2.67
2019-05-07T09:11:44.405Z,2.58
2019-05-07T09:14:15.375Z,3.08
2019-05-07T09:16:45.303Z,3.33
2019-05-07T09:21:44.348Z,2.90
2019-05-07T09:27:02.783Z,3.03
2019-05-07T09:29:46.591Z,3.33
2019-05-07T09:32:24.475Z,3.72
2019-05-07T09:34:59.170Z,3.30
2019-05-07T09:37:33.156Z,3.75
2019-05-07T09:40:03.244Z,3.90
2019-05-07T09:42:33.580Z,3.72
2019-05-07T09:45:03.975Z,3.15
2019-05-07T09:47:34.029Z,3.40
2019-05-07T09:50:08.086Z,3.10
2019-05-07T09:52:37.359Z,3.70
2019-05-07T09:55:16.575Z,3.37
2019-05-07T09:57:42.236Z,3.62
2019-05-07T10:00:12.718Z,3.40
2019-05-07T10:02:42.692Z,2.90
2019-05-07T10:05:12.929Z,3.83
2019-05-07T10:07:42.898Z,3.40
2019-05-07T10:10:13.255Z,3.80
2019-05-07T10:12:56.788Z,2.77
2019-05-07T10:15:26.724Z,3.27
2019-05-07T10:20:28.613Z,3.58
2019-05-07T10:22:59.921Z,3.27
2019-05-07T10:25:39.144Z,3.50
2019-05-07T10:28:09.488Z,3.67
2019-05-07T10:30:39.523Z,3.27
2019-05-07T10:33:09.553Z,3.45
2019-05-07T10:35:39.589Z,3.15
2019-05-07T10:38:09.734Z,3.37
2019-05-07T10:40:39.764Z,3.00
2019-05-07T10:43:09.815Z,3.45
2019-05-07T10:45:42.141Z,3.30
2019-05-07T10:48:33.425Z,3.72
2019-05-07T10:51:04.852Z,4.00
2019-05-07T10:53:35.031Z,3.70
2019-05-07T10:56:05.004Z,3.80
2019-05-07T10:58:34.991Z,3.87
2019-05-07T11:01:05.737Z,3.20
2019-05-07T11:03:35.615Z,3.52
2019-05-07T11:06:05.712Z,4.10
2019-05-07T11:11:04.966Z,4.08
2019-05-07T11:13:34.909Z,3.70
2019-05-07T11:16:09.238Z,4.03
2019-05-07T11:18:42.611Z,3.95
2019-05-07T11:21:14.211Z,3.90
2019-05-07T11:23:44.372Z,4.20
2019-05-07T11:26:14.569Z,3.52
2019-05-07T11:31:13.645Z,3.70
2019-05-07T11:33:43.611Z,3.85
2019-05-07T11:36:13.624Z,3.55
2019-05-07T11:38:44.653Z,4.20
2019-05-07T11:41:14.721Z,3.50
2019-05-07T11:43:49.149Z,3.58
2019-05-07T11:46:22.192Z,3.75
2019-05-07T11:48:57.514Z,3.85
2019-05-07T11:51:33.453Z,4.37
2019-05-07T11:54:08.242Z,4.15
2019-05-07T11:56:38.467Z,5.47
2019-05-07T12:01:44.555Z,5.25
2019-05-07T12:04:12.536Z,6.85
2019-05-07T12:06:42.817Z,6.90
2019-05-07T12:09:12.899Z,6.22
2019-05-07T12:11:42.881Z,5.45
2019-05-07T12:14:12.922Z,5.60
2019-05-07T12:16:42.986Z,5.90
2019-05-07T12:19:16.318Z,6.30
2019-05-07T12:21:44.649Z,6.75
2019-05-07T12:24:16.352Z,6.80
2019-05-07T12:26:46.172Z,6.37
2019-05-07T12:29:16.109Z,5.92
2019-05-07T12:31:47.578Z,6.08
2019-05-07T12:34:22.879Z,5.85
2019-05-07T12:36:52.871Z,6.00
2019-05-07T12:39:22.769Z,6.50
2019-05-07T12:41:52.733Z,6.10
2019-05-07T12:44:22.671Z,6.40
2019-05-07T12:46:52.643Z,6.12
2019-05-07T12:49:22.554Z,6.40
2019-05-07T12:51:54.108Z,6.12
2019-05-07T12:54:25.680Z,6.22
2019-05-07T12:56:55.720Z,6.78
2019-05-07T12:59:25.658Z,8.58
2019-05-07T13:02:15.998Z,8.48
2019-05-07T13:04:36.273Z,7.00
2019-05-07T13:07:07.930Z,7.00
2019-05-07T13:09:37.870Z,6.15
2019-05-07T13:14:37.024Z,5.80
2019-05-07T13:19:39.018Z,5.07
2019-05-07T13:22:07.849Z,5.22
2019-05-07T13:29:37.143Z,5.50
2019-05-07T13:32:07.280Z,7.60
2019-05-07T13:37:08.265Z,5.43
2019-05-07T13:39:43.037Z,4.87
2019-05-07T13:42:21.604Z,4.92
2019-05-07T13:44:53.625Z,4.95
2019-05-07T13:47:25.177Z,4.85
2019-05-07T13:49:56.162Z,5.75
2019-05-07T13:52:26.274Z,5.20
2019-05-07T13:54:56.328Z,5.47
2019-05-07T13:57:26.372Z,5.70
2019-05-07T13:59:56.506Z,6.05
2019-05-07T14:02:27.974Z,5.45
2019-05-07T14:04:58.102Z,5.05
2019-05-07T14:07:29.896Z,6.28
2019-05-07T14:10:02.167Z,6.97
2019-05-07T14:12:33.830Z,6.05
2019-05-07T14:15:04.157Z,6.12
2019-05-07T14:20:04.928Z,6.53
2019-05-07T14:22:36.055Z,6.62
2019-05-07T14:25:07.412Z,6.85
2019-05-07T14:27:37.341Z,8.33
2019-05-07T14:30:09.069Z,8.15
2019-05-07T14:32:57.767Z,7.20
2019-05-07T14:35:38.358Z,6.90
2019-05-07T14:38:13.631Z,6.17
2019-05-07T14:40:42.704Z,6.75
2019-05-07T14:43:14.492Z,7.37
2019-05-07T14:45:44.519Z,6.33
2019-05-07T14:48:14.575Z,5.75
2019-05-07T14:50:44.982Z,5.62
2019-05-07T14:53:15.164Z,5.75
2019-05-07T14:55:45.161Z,5.30
2019-05-07T14:58:15.339Z,6.22
2019-05-07T15:00:45.468Z,7.42
2019-05-07T15:03:15.496Z,6.80
2019-05-07T15:05:45.451Z,5.67
2019-05-07T15:08:15.372Z,6.65
2019-05-07T15:10:45.412Z,6.62
2019-05-07T15:13:16.029Z,7.95
2019-05-07T15:15:45.996Z,6.15
2019-05-07T15:18:27.488Z,5.75
2019-05-07T15:20:57.528Z,5.15
2019-05-07T15:23:31.870Z,5.12
2019-05-07T15:26:04.717Z,5.50
2019-05-07T15:28:34.757Z,5.22
2019-05-07T15:31:09.522Z,5.70
2019-05-07T15:33:41.641Z,5.90
2019-05-07T15:36:12.003Z,5.42
2019-05-07T15:38:42.855Z,5.20
2019-05-07T15:41:13.090Z,5.67
2019-05-07T15:43:45.912Z,4.90
2019-05-07T15:46:14.980Z,5.67
2019-05-07T15:48:45.011Z,5.85
2019-05-07T15:51:16.910Z,7.47
2019-05-07T15:53:54.110Z,7.67
2019-05-07T15:56:24.122Z,7.35
2019-05-07T15:58:54.063Z,8.10
2019-05-07T16:01:24.100Z,8.00
2019-05-07T16:03:54.805Z,10.10
2019-05-07T16:06:25.305Z,9.78
2019-05-07T16:08:56.873Z,8.45
2019-05-07T16:11:27.015Z,8.08
2019-05-07T16:14:07.270Z,7.17
2019-05-07T16:16:38.845Z,6.75
2019-05-07T16:19:28.616Z,7.05
2019-05-07T16:22:03.617Z,6.75
2019-05-07T16:24:32.722Z,7.50
2019-05-07T16:27:05.245Z,8.20
2019-05-07T16:29:35.828Z,7.20
2019-05-07T16:32:06.008Z,7.35
2019-05-07T16:34:36.001Z,7.67
2019-05-07T16:37:07.596Z,7.47
2019-05-07T16:39:37.914Z,9.43
2019-05-07T16:42:07.979Z,7.67
2019-05-07T16:44:38.088Z,7.75
2019-05-07T16:47:08.030Z,7.42
2019-05-07T16:49:37.963Z,7.90
2019-05-07T16:52:07.976Z,8.35
2019-05-07T16:54:37.847Z,8.28
2019-05-07T16:57:18.299Z,8.78
2019-05-07T16:59:48.294Z,9.18
2019-05-07T17:02:19.867Z,8.78
2019-05-07T17:05:05.810Z,8.85
2019-05-07T17:07:37.396Z,10.32
2019-05-07T17:10:08.443Z,6.90
2019-05-07T17:12:41.741Z,7.05
2019-05-07T17:15:13.320Z,7.17
2019-05-07T17:17:45.000Z,8.65
2019-05-07T17:20:16.890Z,8.40
2019-05-07T17:22:48.529Z,7.05
2019-05-07T17:25:36.513Z,8.13
2019-05-07T17:28:08.713Z,7.70
2019-05-07T17:30:42.091Z,9.75
2019-05-07T17:33:14.054Z,8.80
2019-05-07T17:35:46.406Z,8.15
2019-05-07T17:38:17.188Z,11.83
2019-05-07T17:40:48.893Z,11.38
2019-05-07T17:43:19.007Z,10.72
2019-05-07T17:45:52.074Z,7.87
2019-05-07T17:48:23.243Z,7.65
2019-05-07T17:51:08.694Z,6.95
2019-05-07T17:53:39.096Z,7.53
2019-05-07T17:56:12.661Z,9.30
2019-05-07T17:58:42.739Z,8.30
2019-05-07T18:01:14.837Z,21.23
2019-05-07T18:03:44.531Z,31.05
2019-05-07T18:06:14.447Z,9.85
2019-05-07T18:08:44.907Z,10.70
2019-05-07T18:11:20.973Z,10.32
2019-05-07T18:13:51.845Z,18.02
2019-05-07T18:16:39.596Z,12.03
2019-05-07T18:19:12.646Z,11.60
2019-05-07T18:21:43.470Z,11.55
2019-05-07T18:24:16.847Z,12.43
2019-05-07T18:26:47.232Z,12.35
2019-05-07T18:29:17.121Z,13.10
2019-05-07T18:32:01.946Z,12.33
2019-05-07T18:34:32.525Z,13.13
2019-05-07T18:39:32.815Z,13.43
2019-05-07T18:42:03.593Z,13.72
2019-05-07T18:44:33.626Z,16.42
2019-05-07T18:47:03.573Z,14.35
2019-05-07T18:49:33.907Z,22.42
2019-05-07T18:52:03.841Z,17.00
2019-05-07T18:54:35.507Z,16.75
2019-05-07T18:57:06.673Z,19.10
2019-05-07T18:59:38.339Z,17.62
2019-05-07T19:02:10.437Z,18.77
2019-05-07T19:07:14.026Z,25.57
2019-05-07T19:09:44.496Z,30.05
2019-05-07T19:12:16.819Z,27.02
2019-05-07T19:14:47.789Z,28.85
2019-05-07T19:17:18.727Z,26.80
2019-05-07T19:19:48.671Z,21.62
2019-05-07T19:22:18.908Z,19.87
2019-05-07T19:27:21.915Z,20.30
2019-05-07T19:29:52.500Z,19.62
2019-05-07T19:32:22.951Z,19.70
2019-05-07T19:34:53.716Z,21.75
2019-05-07T19:39:54.080Z,39.75
2019-05-07T19:42:24.016Z,30.52
2019-05-07T19:44:54.255Z,28.17
2019-05-07T19:47:25.544Z,30.15
2019-05-07T19:49:55.961Z,32.05
2019-05-07T19:55:04.174Z,24.77
2019-05-07T19:57:33.369Z,23.55
2019-05-07T20:00:05.728Z,21.80
2019-05-07T20:02:44.838Z,23.22
2019-05-07T20:05:14.727Z,21.45
2019-05-07T20:07:46.889Z,24.00
2019-05-07T20:10:18.657Z,33.13
2019-05-07T20:12:49.419Z,23.65
2019-05-07T20:15:22.373Z,23.85
2019-05-07T20:17:53.385Z,22.40
2019-05-07T20:20:24.639Z,24.72
2019-05-07T20:22:55.387Z,26.60
2019-05-07T20:25:25.323Z,25.08
2019-05-07T20:27:57.004Z,26.90
2019-05-07T20:32:57.247Z,24.82
2019-05-07T20:35:28.543Z,21.73
2019-05-07T20:38:02.754Z,19.85
2019-05-07T20:40:34.446Z,19.48
2019-05-07T20:43:04.380Z,20.27
2019-05-07T20:45:35.365Z,19.20
2019-05-07T20:48:06.191Z,20.45
2019-05-07T20:50:36.246Z,19.75
2019-05-07T20:53:06.374Z,21.62
2019-05-07T20:55:47.032Z,20.15
2019-05-07T21:00:47.056Z,22.77
2019-05-07T21:03:24.081Z,23.18
2019-05-07T21:05:54.249Z,24.63
2019-05-07T21:08:24.212Z,25.48
2019-05-07T21:10:54.233Z,26.90
2019-05-07T21:13:30.905Z,25.68
2019-05-07T21:15:56.850Z,27.82
2019-05-07T21:18:26.700Z,24.70
2019-05-07T21:20:56.633Z,25.85
2019-05-07T21:23:26.567Z,25.37
2019-05-07T21:25:56.480Z,24.20
2019-05-07T21:28:26.425Z,23.47
2019-05-07T21:30:56.349Z,23.05
2019-05-07T21:33:26.402Z,26.62
2019-05-07T21:35:56.226Z,22.62
2019-05-07T21:38:26.061Z,23.55
2019-05-07T21:40:55.885Z,24.87
2019-05-07T21:43:25.933Z,25.27
2019-05-07T21:45:56.272Z,28.05
2019-05-07T21:48:26.322Z,30.80
2019-05-07T21:50:57.264Z,31.52
2019-05-07T21:53:28.834Z,29.77
2019-05-07T21:56:03.035Z,30.77
2019-05-07T21:58:36.377Z,30.32
2019-05-07T22:01:07.953Z,30.25
2019-05-07T22:03:40.238Z,29.60
2019-05-07T22:06:12.675Z,29.18
2019-05-07T22:08:43.068Z,29.32
2019-05-07T22:11:13.207Z,27.48
2019-05-07T22:13:43.668Z,29.02
2019-05-07T22:18:43.323Z,27.52
2019-05-07T22:21:13.254Z,28.10
2019-05-07T22:23:43.303Z,29.37
2019-05-07T22:26:22.689Z,28.30
2019-05-07T22:28:44.826Z,27.60
2019-05-07T22:31:18.870Z,28.67
2019-05-07T22:34:06.963Z,28.95
2019-05-07T22:36:36.879Z,26.27
2019-05-07T22:39:14.443Z,28.77
2019-05-07T22:41:45.974Z,26.40
2019-05-07T22:44:16.206Z,29.27
2019-05-07T22:46:46.045Z,26.77
2019-05-07T22:49:16.083Z,25.55
2019-05-07T22:51:46.019Z,20.15
2019-05-07T22:54:16.161Z,24.05
2019-05-07T22:56:59.482Z,18.60
2019-05-07T22:59:29.527Z,23.83
2019-05-07T23:01:59.457Z,22.20
2019-05-07T23:04:29.397Z,20.70
2019-05-07T23:06:59.337Z,20.10
2019-05-07T23:09:29.367Z,17.62
2019-05-07T23:11:59.195Z,17.70
2019-05-07T23:14:29.099Z,16.55
2019-05-07T23:16:59.073Z,19.00
2019-05-07T23:19:29.113Z,19.92
2019-05-07T23:21:59.040Z,20.55
2019-05-07T23:24:29.075Z,20.43
2019-05-07T23:26:59.112Z,18.67
2019-05-07T23:29:29.059Z,20.85
2019-05-07T23:31:58.933Z,25.82
2019-05-07T23:34:28.871Z,29.32
2019-05-07T23:36:58.835Z,26.27
2019-05-07T23:39:30.428Z,22.30
2019-05-07T23:42:02.308Z,13.25
2019-05-07T23:44:32.758Z,12.82
2019-05-07T23:47:02.889Z,19.77
2019-05-07T23:49:32.874Z,18.60
2019-05-07T23:52:02.921Z,20.05
2019-05-07T23:54:32.895Z,23.62
2019-05-07T23:57:09.263Z,25.75
2019-05-07T23:59:34.501Z,24.70
